createdAt,value
2023-04-26T00:00:09.507Z,3.97
2023-04-26T00:02:38.177Z,7.23
2023-04-26T00:05:10.042Z,9.90
2023-04-26T00:07:39.292Z,8.80
2023-04-26T00:10:08.636Z,8.40
2023-04-26T00:12:37.669Z,3.67
2023-04-26T00:15:07.694Z,11.33
2023-04-26T00:17:36.523Z,5.80
2023-04-26T00:20:09.322Z,5.83
2023-04-26T00:22:39.962Z,5.27
2023-04-26T00:25:09.119Z,6.50
2023-04-26T00:27:37.528Z,8.73
2023-04-26T00:30:07.184Z,7.83
2023-04-26T00:32:36.493Z,5.43
2023-04-26T00:35:06.523Z,10.23
2023-04-26T00:37:35.223Z,6.80
2023-04-26T00:40:06.324Z,6.97
2023-04-26T00:42:34.915Z,5.53
2023-04-26T00:45:04.195Z,7.53
2023-04-26T00:47:33.092Z,5.53
2023-04-26T00:50:03.794Z,10.00
2023-04-26T00:52:33.449Z,6.43
2023-04-26T00:55:02.135Z,3.33
2023-04-26T00:57:32.705Z,5.83
2023-04-26T01:00:01.224Z,3.87
2023-04-26T01:02:29.877Z,6.70
2023-04-26T01:04:58.467Z,6.67
2023-04-26T01:07:27.280Z,6.00
2023-04-26T01:09:56.934Z,7.07
2023-04-26T01:12:26.045Z,5.33
2023-04-26T01:14:56.474Z,4.83
2023-04-26T01:17:24.884Z,6.43
2023-04-26T01:19:53.707Z,6.57
2023-04-26T01:22:22.794Z,6.40
2023-04-26T01:24:56.491Z,7.30
2023-04-26T01:27:25.063Z,9.90
2023-04-26T01:29:54.144Z,6.43
2023-04-26T01:32:22.887Z,6.87
2023-04-26T01:34:51.334Z,7.93
2023-04-26T01:37:19.680Z,9.07
2023-04-26T01:39:48.296Z,12.60
2023-04-26T01:42:18.451Z,7.60
2023-04-26T01:44:47.155Z,4.63
2023-04-26T01:47:16.035Z,8.23
2023-04-26T01:49:44.860Z,7.70
2023-04-26T01:52:13.643Z,8.97
2023-04-26T01:54:42.311Z,5.97
2023-04-26T01:57:11.117Z,5.83
2023-04-26T01:59:41.298Z,10.17
2023-04-26T02:02:10.279Z,5.03
2023-04-26T02:04:39.013Z,11.37
2023-04-26T02:07:07.702Z,6.40
2023-04-26T02:09:36.317Z,6.67
2023-04-26T02:12:05.182Z,8.93
2023-04-26T02:14:34.723Z,10.37
2023-04-26T02:17:06.566Z,7.33
2023-04-26T02:19:35.270Z,7.63
2023-04-26T02:22:06.524Z,6.73
2023-04-26T02:24:35.353Z,5.30
2023-04-26T02:27:05.674Z,5.13
2023-04-26T02:29:42.961Z,7.50
2023-04-26T02:32:15.477Z,12.13
2023-04-26T02:34:44.975Z,10.53
2023-04-26T02:37:13.904Z,5.70
2023-04-26T02:39:42.584Z,8.37
2023-04-26T02:42:12.029Z,7.47
2023-04-26T02:44:40.965Z,7.43
2023-04-26T02:47:09.761Z,13.30
2023-04-26T02:49:39.902Z,6.23
2023-04-26T02:52:08.597Z,6.43
2023-04-26T02:54:37.434Z,8.00
2023-04-26T02:57:06.407Z,8.33
2023-04-26T02:59:35.104Z,4.97
2023-04-26T03:02:03.806Z,6.07
2023-04-26T03:04:34.612Z,5.60
2023-04-26T03:07:05.078Z,7.37
2023-04-26T03:09:34.653Z,10.27
2023-04-26T03:12:03.384Z,11.93
2023-04-26T03:14:31.917Z,9.63
2023-04-26T03:17:00.490Z,8.17
2023-04-26T03:19:29.416Z,9.73
2023-04-26T03:21:58.561Z,8.53
2023-04-26T03:24:28.821Z,10.60
2023-04-26T03:26:58.179Z,5.87
2023-04-26T03:29:27.223Z,6.60
2023-04-26T03:31:56.002Z,6.33
2023-04-26T03:34:24.559Z,6.83
2023-04-26T03:36:53.068Z,8.67
2023-04-26T03:39:22.174Z,4.67
2023-04-26T03:41:53.711Z,6.00
2023-04-26T03:44:22.343Z,7.73
2023-04-26T03:46:50.787Z,6.23
2023-04-26T03:49:19.430Z,8.73
2023-04-26T03:51:48.168Z,9.07
2023-04-26T03:54:17.140Z,11.70
2023-04-26T03:56:45.875Z,8.73
2023-04-26T03:59:15.765Z,8.73
2023-04-26T04:01:44.048Z,7.83
2023-04-26T04:04:12.468Z,6.10
2023-04-26T04:06:41.027Z,7.23
2023-04-26T04:09:09.414Z,10.67
2023-04-26T04:11:37.618Z,9.53
2023-04-26T04:14:05.949Z,10.53
2023-04-26T04:16:35.654Z,7.50
2023-04-26T04:19:04.361Z,8.47
2023-04-26T04:21:32.833Z,5.17
2023-04-26T04:24:01.359Z,9.97
2023-04-26T04:26:29.658Z,5.53
2023-04-26T04:29:00.663Z,5.30
2023-04-26T04:31:29.151Z,7.97
2023-04-26T04:33:59.211Z,7.33
2023-04-26T04:36:27.680Z,11.20
2023-04-26T04:38:56.025Z,10.17
2023-04-26T04:41:24.472Z,11.80
2023-04-26T04:43:53.743Z,6.67
2023-04-26T04:46:22.287Z,8.40
2023-04-26T04:48:50.749Z,10.03
2023-04-26T04:51:20.576Z,6.63
2023-04-26T04:53:48.806Z,6.53
2023-04-26T04:56:18.561Z,8.87
2023-04-26T04:58:47.947Z,9.73
2023-04-26T05:01:16.304Z,6.57
2023-04-26T05:03:44.828Z,5.93
2023-04-26T05:06:13.258Z,6.07
2023-04-26T05:08:42.941Z,9.40
2023-04-26T05:11:11.343Z,10.10
2023-04-26T05:13:39.681Z,7.17
2023-04-26T05:16:08.223Z,5.90
2023-04-26T05:18:36.929Z,9.17
2023-04-26T05:21:05.440Z,9.33
2023-04-26T05:23:34.454Z,11.80
2023-04-26T05:26:06.180Z,3.90
2023-04-26T05:28:35.117Z,10.10
2023-04-26T05:31:04.240Z,6.70
2023-04-26T05:33:32.550Z,3.27
2023-04-26T05:36:01.683Z,8.43
2023-04-26T05:38:30.237Z,5.57
2023-04-26T05:40:58.803Z,7.00
2023-04-26T05:43:28.540Z,6.13
2023-04-26T05:45:57.922Z,9.20
2023-04-26T05:48:26.701Z,7.43
2023-04-26T05:50:55.144Z,8.10
2023-04-26T05:53:23.687Z,4.23
2023-04-26T05:55:51.986Z,5.63
2023-04-26T05:58:20.386Z,8.07
2023-04-26T06:00:50.106Z,5.90
2023-04-26T06:03:19.505Z,7.50
2023-04-26T06:05:48.217Z,6.50
2023-04-26T06:08:16.651Z,6.17
2023-04-26T06:10:45.005Z,6.20
2023-04-26T06:13:13.433Z,6.87
2023-04-26T06:15:41.757Z,9.23
2023-04-26T06:18:11.588Z,6.47
2023-04-26T06:20:40.004Z,7.57
2023-04-26T06:23:08.895Z,6.77
2023-04-26T06:25:37.473Z,7.17
2023-04-26T06:28:06.227Z,6.97
2023-04-26T06:30:34.574Z,9.47
2023-04-26T06:33:03.256Z,7.57
2023-04-26T06:35:33.140Z,7.00
2023-04-26T06:38:02.679Z,11.87
2023-04-26T06:40:31.124Z,14.53
2023-04-26T06:42:59.519Z,12.70
2023-04-26T06:45:28.005Z,7.43
2023-04-26T06:47:57.227Z,7.97
2023-04-26T06:50:25.676Z,8.47
2023-04-26T06:52:55.601Z,8.87
2023-04-26T06:55:24.936Z,8.07
2023-04-26T06:57:53.327Z,5.37
2023-04-26T07:00:22.444Z,6.10
2023-04-26T07:02:51.004Z,6.40
2023-04-26T07:05:19.695Z,7.67
2023-04-26T07:07:48.287Z,8.00
2023-04-26T07:10:18.080Z,10.93
2023-04-26T07:12:46.648Z,5.90
2023-04-26T07:15:15.083Z,4.40
2023-04-26T07:17:43.634Z,6.10
2023-04-26T07:20:13.298Z,6.00
2023-04-26T07:22:41.661Z,6.20
2023-04-26T07:25:10.409Z,6.13
2023-04-26T07:27:40.232Z,4.97
2023-04-26T07:30:10.319Z,7.00
2023-04-26T07:32:38.791Z,4.73
2023-04-26T07:35:10.677Z,6.53
2023-04-26T07:37:39.306Z,6.30
2023-04-26T07:40:10.530Z,7.10
2023-04-26T07:42:40.391Z,4.60
2023-04-26T07:45:10.308Z,7.33
2023-04-26T07:47:38.679Z,6.80
2023-04-26T07:50:08.451Z,7.30
2023-04-26T07:52:36.922Z,7.47
2023-04-26T07:55:05.680Z,8.90
2023-04-26T07:57:34.136Z,3.50
2023-04-26T08:00:04.659Z,5.77
2023-04-26T08:02:44.642Z,7.60
2023-04-26T08:05:14.519Z,6.47
2023-04-26T08:07:43.623Z,6.93
2023-04-26T08:10:13.107Z,4.27
2023-04-26T08:12:41.681Z,6.63
2023-04-26T08:15:13.168Z,8.30
2023-04-26T08:17:41.785Z,6.33
2023-04-26T08:20:11.118Z,7.57
2023-04-26T08:22:39.754Z,7.07
2023-04-26T08:25:08.819Z,7.93
2023-04-26T08:27:37.565Z,4.80
2023-04-26T08:30:06.990Z,6.33
2023-04-26T08:32:36.949Z,6.47
2023-04-26T08:35:06.014Z,7.93
2023-04-26T08:37:35.882Z,4.47
2023-04-26T08:40:05.038Z,7.87
2023-04-26T08:42:35.805Z,6.53
2023-04-26T08:45:06.432Z,7.03
2023-04-26T08:47:42.568Z,6.00
2023-04-26T08:50:12.878Z,4.17
2023-04-26T08:52:42.236Z,3.77
2023-04-26T08:55:12.906Z,6.90
2023-04-26T08:57:42.177Z,6.40
2023-04-26T09:00:12.592Z,2.57
2023-04-26T09:02:47.403Z,7.03
2023-04-26T09:05:16.089Z,9.87
2023-04-26T09:07:46.535Z,6.60
2023-04-26T09:10:17.135Z,6.80
2023-04-26T09:12:45.603Z,5.17
2023-04-26T09:15:17.048Z,4.60
2023-04-26T09:17:47.128Z,3.83
2023-04-26T09:20:24.068Z,5.30
2023-04-26T09:22:54.467Z,4.23
2023-04-26T09:25:30.675Z,5.87
2023-04-26T09:27:59.722Z,6.83
2023-04-26T09:30:28.852Z,5.37
2023-04-26T09:32:59.834Z,9.47
2023-04-26T09:35:30.500Z,2.73
2023-04-26T09:38:08.011Z,5.23
2023-04-26T09:40:41.399Z,3.23
2023-04-26T09:43:12.877Z,4.43
2023-04-26T09:45:50.138Z,5.40
2023-04-26T09:48:23.072Z,4.73
2023-04-26T09:50:53.493Z,8.27
2023-04-26T09:53:29.831Z,5.87
2023-04-26T09:55:58.952Z,6.97
2023-04-26T09:58:27.301Z,7.07
2023-04-26T10:00:57.036Z,6.17
2023-04-26T10:03:27.268Z,5.67
2023-04-26T10:05:56.015Z,5.60
2023-04-26T10:08:24.761Z,8.33
2023-04-26T10:10:53.236Z,8.20
2023-04-26T10:13:21.566Z,7.20
2023-04-26T10:15:50.294Z,4.83
2023-04-26T10:18:18.728Z,4.10
2023-04-26T10:20:53.192Z,4.33
2023-04-26T10:23:25.684Z,5.57
2023-04-26T10:25:54.575Z,4.10
2023-04-26T10:29:02.211Z,5.13
2023-04-26T10:32:17.313Z,6.33
2023-04-26T10:35:07.542Z,8.40
2023-04-26T10:37:37.790Z,3.70
2023-04-26T10:40:27.499Z,4.93
2023-04-26T10:43:29.239Z,5.27
2023-04-26T10:45:58.073Z,7.50
2023-04-26T10:48:32.113Z,4.60
2023-04-26T10:51:12.521Z,5.27
2023-04-26T10:54:02.371Z,4.77
2023-04-26T10:56:54.677Z,7.17
2023-04-26T10:59:39.912Z,5.23
2023-04-26T11:02:12.485Z,4.67
2023-04-26T11:04:53.737Z,4.77
2023-04-26T11:07:40.301Z,4.60
2023-04-26T11:10:11.871Z,2.00
2023-04-26T11:12:43.655Z,5.43
2023-04-26T11:15:14.434Z,4.53
2023-04-26T11:17:42.963Z,6.30
2023-04-26T11:20:17.221Z,3.17
2023-04-26T11:22:45.763Z,4.90
2023-04-26T11:25:15.686Z,5.47
2023-04-26T11:27:44.977Z,4.57
2023-04-26T11:30:14.517Z,6.20
2023-04-26T11:32:43.092Z,6.13
2023-04-26T11:35:11.791Z,8.17
2023-04-26T11:37:40.227Z,6.73
2023-04-26T11:40:12.721Z,8.77
2023-04-26T11:42:42.824Z,7.07
2023-04-26T11:45:12.482Z,8.90
2023-04-26T11:47:42.403Z,6.47
2023-04-26T11:50:11.579Z,7.03
2023-04-26T11:52:42.021Z,4.70
2023-04-26T11:55:11.730Z,5.97
2023-04-26T11:57:41.749Z,3.37
2023-04-26T12:00:15.061Z,7.83
2023-04-26T12:02:47.662Z,4.70
2023-04-26T12:05:26.586Z,6.27
2023-04-26T12:07:56.838Z,4.40
2023-04-26T12:10:27.997Z,3.53
2023-04-26T12:13:00.142Z,3.67
2023-04-26T12:15:32.873Z,4.57
2023-04-26T12:18:02.767Z,7.93
2023-04-26T12:20:34.919Z,3.63
2023-04-26T12:23:07.648Z,7.90
2023-04-26T12:25:38.517Z,7.67
2023-04-26T12:28:12.825Z,5.80
2023-04-26T12:30:42.624Z,3.80
2023-04-26T12:33:17.265Z,7.30
2023-04-26T12:35:47.078Z,4.90
2023-04-26T12:38:16.052Z,6.37
2023-04-26T12:40:47.628Z,6.33
2023-04-26T12:43:18.186Z,3.83
2023-04-26T12:45:47.324Z,4.73
2023-04-26T12:48:16.949Z,7.00
2023-04-26T12:50:46.208Z,14.07
2023-04-26T12:53:15.723Z,8.13
2023-04-26T12:55:45.417Z,6.97
2023-04-26T12:58:14.545Z,7.10
2023-04-26T13:00:45.163Z,11.97
2023-04-26T13:03:14.994Z,8.33
2023-04-26T13:05:43.801Z,5.97
2023-04-26T13:08:12.725Z,4.93
2023-04-26T13:10:41.570Z,6.97
2023-04-26T13:13:10.172Z,8.07
2023-04-26T13:15:39.029Z,6.77
2023-04-26T13:18:09.259Z,6.60
2023-04-26T13:20:38.477Z,5.93
2023-04-26T13:23:07.330Z,5.37
2023-04-26T13:25:36.154Z,3.70
2023-04-26T13:28:04.980Z,3.27
2023-04-26T13:30:33.793Z,5.90
2023-04-26T13:33:02.456Z,6.13
2023-04-26T13:35:32.541Z,7.60
2023-04-26T13:38:01.419Z,8.40
2023-04-26T13:40:30.330Z,11.43
2023-04-26T13:42:59.619Z,6.93
2023-04-26T13:45:28.540Z,8.60
2023-04-26T13:47:57.441Z,6.83
2023-04-26T13:50:26.164Z,5.93
2023-04-26T13:52:56.798Z,6.33
2023-04-26T13:55:25.932Z,8.07
2023-04-26T13:57:54.579Z,3.93
2023-04-26T14:00:24.287Z,4.63
2023-04-26T14:02:53.282Z,6.87
2023-04-26T14:05:22.330Z,3.90
2023-04-26T14:07:53.562Z,7.07
2023-04-26T14:10:25.241Z,4.90
2023-04-26T14:12:55.006Z,6.80
2023-04-26T14:15:23.889Z,4.17
2023-04-26T14:17:52.449Z,6.17
2023-04-26T14:20:20.998Z,6.87
2023-04-26T14:22:50.325Z,6.87
2023-04-26T14:25:19.119Z,4.93
2023-04-26T14:27:50.243Z,6.30
2023-04-26T14:30:20.063Z,5.17
2023-04-26T14:32:48.858Z,7.43
2023-04-26T14:35:17.792Z,4.47
2023-04-26T14:37:46.645Z,4.47
2023-04-26T14:40:15.713Z,6.10
2023-04-26T14:42:46.287Z,3.80
2023-04-26T14:45:16.584Z,5.50
2023-04-26T14:47:45.113Z,7.60
2023-04-26T14:50:14.623Z,5.50
2023-04-26T14:52:47.209Z,4.23
2023-04-26T14:55:19.860Z,6.57
2023-04-26T14:57:48.379Z,4.03
2023-04-26T15:00:19.162Z,5.63
2023-04-26T15:02:48.166Z,5.37
2023-04-26T15:05:17.115Z,5.83
2023-04-26T15:07:45.528Z,7.50
2023-04-26T15:10:14.079Z,6.87
2023-04-26T15:12:42.866Z,5.23
2023-04-26T15:15:12.085Z,5.80
2023-04-26T15:17:41.965Z,4.40
2023-04-26T15:20:10.997Z,5.20
2023-04-26T15:22:39.629Z,4.53
2023-04-26T15:25:09.251Z,5.30
2023-04-26T15:27:38.026Z,6.03
2023-04-26T15:30:07.642Z,4.77
2023-04-26T15:32:36.358Z,6.50
2023-04-26T15:35:07.687Z,5.73
2023-04-26T15:37:38.918Z,3.53
2023-04-26T15:40:10.661Z,7.30
2023-04-26T15:42:39.497Z,4.57
2023-04-26T15:45:09.215Z,4.00
2023-04-26T15:47:38.261Z,6.23
2023-04-26T15:50:09.461Z,5.33
2023-04-26T15:52:39.518Z,3.53
2023-04-26T15:55:09.955Z,5.07
2023-04-26T15:57:38.826Z,5.30
2023-04-26T16:00:09.837Z,3.57
2023-04-26T16:02:38.411Z,6.17
2023-04-26T16:05:09.143Z,7.00
2023-04-26T16:07:38.987Z,5.37
2023-04-26T16:10:09.281Z,5.20
2023-04-26T16:12:39.842Z,4.13
2023-04-26T16:15:09.467Z,4.60
2023-04-26T16:17:38.911Z,7.43
2023-04-26T16:20:10.834Z,4.73
2023-04-26T16:22:39.469Z,3.93
2023-04-26T16:25:09.038Z,5.90
2023-04-26T16:27:37.489Z,2.30
2023-04-26T16:30:06.777Z,6.60
2023-04-26T16:32:35.268Z,5.37
2023-04-26T16:35:04.315Z,2.70
2023-04-26T16:37:34.084Z,3.17
2023-04-26T16:40:02.747Z,4.87
2023-04-26T16:42:32.208Z,8.73
2023-04-26T16:45:00.647Z,6.97
2023-04-26T16:47:29.149Z,4.23
2023-04-26T16:49:57.537Z,7.27
2023-04-26T16:52:25.945Z,6.37
2023-04-26T16:54:56.129Z,6.33
2023-04-26T16:57:24.559Z,5.77
2023-04-26T16:59:53.064Z,4.30
2023-04-26T17:02:21.648Z,6.97
2023-04-26T17:04:50.202Z,4.37
2023-04-26T17:07:18.726Z,3.23
2023-04-26T17:09:47.214Z,7.20
2023-04-26T17:12:16.916Z,4.20
2023-04-26T17:14:45.535Z,5.57
2023-04-26T17:17:14.043Z,4.73
2023-04-26T17:19:42.399Z,5.27
2023-04-26T17:22:11.400Z,7.70
2023-04-26T17:24:39.784Z,4.83
2023-04-26T17:27:08.214Z,7.77
2023-04-26T17:29:38.205Z,4.80
2023-04-26T17:32:07.069Z,8.80
2023-04-26T17:34:35.633Z,3.20
2023-04-26T17:37:05.392Z,5.30
2023-04-26T17:39:33.765Z,4.70
2023-04-26T17:42:03.144Z,4.07
2023-04-26T17:44:31.571Z,4.30
2023-04-26T17:47:01.467Z,5.43
2023-04-26T17:49:29.917Z,4.90
2023-04-26T17:51:58.307Z,5.27
2023-04-26T17:54:26.645Z,5.87
2023-04-26T17:56:55.114Z,13.37
2023-04-26T17:59:23.670Z,9.27
2023-04-26T18:01:52.101Z,7.73
2023-04-26T18:04:22.152Z,3.57
2023-04-26T18:06:51.197Z,4.10
2023-04-26T18:09:19.693Z,3.90
2023-04-26T18:11:48.296Z,2.10
2023-04-26T18:14:16.944Z,2.90
2023-04-26T18:16:45.346Z,1.97
2023-04-26T18:19:13.735Z,2.90
2023-04-26T18:21:43.678Z,2.33
2023-04-26T18:24:14.875Z,1.83
2023-04-26T18:26:43.526Z,3.53
2023-04-26T18:29:11.939Z,3.23
2023-04-26T18:31:40.536Z,3.20
2023-04-26T18:34:10.586Z,4.67
2023-04-26T18:36:39.070Z,4.90
2023-04-26T18:39:08.877Z,2.77
2023-04-26T18:41:37.239Z,2.97
2023-04-26T18:44:10.757Z,2.70
2023-04-26T18:46:39.207Z,2.87
2023-04-26T18:49:07.956Z,2.80
2023-04-26T18:51:36.453Z,6.03
2023-04-26T18:54:05.085Z,3.33
2023-04-26T18:56:34.836Z,4.53
2023-04-26T18:59:03.168Z,3.97
2023-04-26T19:01:31.554Z,2.40
2023-04-26T19:04:00.069Z,5.27
2023-04-26T19:06:28.598Z,3.37
2023-04-26T19:08:57.000Z,3.77
2023-04-26T19:11:25.814Z,4.67
2023-04-26T19:13:55.608Z,4.80
2023-04-26T19:16:23.923Z,3.50
2023-04-26T19:18:52.996Z,3.60
2023-04-26T19:21:21.347Z,3.83
2023-04-26T19:23:49.584Z,4.77
2023-04-26T19:26:18.141Z,3.60
2023-04-26T19:28:46.758Z,3.73
2023-04-26T19:31:16.602Z,3.43
2023-04-26T19:33:46.215Z,5.73
2023-04-26T19:36:14.477Z,6.77
2023-04-26T19:38:42.813Z,3.30
2023-04-26T19:41:11.213Z,6.00
2023-04-26T19:43:39.677Z,4.70
2023-04-26T19:46:14.293Z,6.20
2023-04-26T19:48:44.301Z,6.03
2023-04-26T19:51:17.419Z,4.07
2023-04-26T19:53:45.858Z,6.13
2023-04-26T19:56:14.160Z,3.70
2023-04-26T19:58:42.922Z,3.50
2023-04-26T20:01:11.334Z,9.00
2023-04-26T20:03:41.589Z,4.17
2023-04-26T20:06:13.995Z,8.03
2023-04-26T20:08:42.451Z,3.83
2023-04-26T20:11:15.164Z,4.47
2023-04-26T20:13:43.751Z,4.83
2023-04-26T20:16:12.685Z,4.17
2023-04-26T20:18:41.133Z,4.20
2023-04-26T20:21:11.035Z,4.60
2023-04-26T20:23:39.367Z,3.53
2023-04-26T20:26:07.629Z,3.43
2023-04-26T20:28:38.073Z,2.40
2023-04-26T20:31:07.606Z,2.23
2023-04-26T20:33:36.286Z,2.80
2023-04-26T20:36:04.789Z,3.10
2023-04-26T20:38:35.052Z,4.87
2023-04-26T20:41:04.590Z,2.70
2023-04-26T20:43:33.167Z,2.17
2023-04-26T20:46:01.609Z,3.17
2023-04-26T20:48:29.969Z,2.87
2023-04-26T20:50:58.879Z,3.33
2023-04-26T20:53:27.161Z,3.73
2023-04-26T20:55:57.029Z,2.80
2023-04-26T20:58:25.605Z,3.00
2023-04-26T21:00:55.581Z,3.07
2023-04-26T21:03:24.229Z,2.83
2023-04-26T21:05:52.774Z,2.10
2023-04-26T21:08:21.288Z,5.10
2023-04-26T21:10:50.041Z,4.33
2023-04-26T21:13:20.520Z,4.77
2023-04-26T21:15:49.290Z,4.73
2023-04-26T21:18:18.228Z,4.33
2023-04-26T21:20:46.784Z,2.30
2023-04-26T21:23:15.364Z,75.20
2023-04-26T21:25:46.618Z,49.17
2023-04-26T21:28:15.532Z,42.97
2023-04-26T21:30:45.750Z,39.03
2023-04-26T21:33:16.180Z,31.93
2023-04-26T21:35:44.948Z,20.50
2023-04-26T21:38:13.367Z,10.87
2023-04-26T21:40:42.028Z,13.93
2023-04-26T21:43:11.373Z,9.13
2023-04-26T21:45:39.855Z,10.60
2023-04-26T21:48:09.919Z,15.70
2023-04-26T21:50:38.446Z,6.07
2023-04-26T21:53:07.509Z,5.77
2023-04-26T21:55:36.443Z,7.37
2023-04-26T21:58:04.983Z,5.30
2023-04-26T22:00:33.771Z,5.97
2023-04-26T22:03:02.892Z,4.63
2023-04-26T22:05:33.393Z,9.00
2023-04-26T22:08:02.263Z,8.07
2023-04-26T22:10:31.350Z,5.20
2023-04-26T22:13:00.206Z,6.63
2023-04-26T22:15:29.089Z,5.23
2023-04-26T22:17:57.552Z,13.27
2023-04-26T22:20:26.916Z,34.37
2023-04-26T22:22:56.830Z,6.70
2023-04-26T22:25:26.869Z,4.03
2023-04-26T22:27:55.386Z,4.07
2023-04-26T22:30:25.939Z,5.10
2023-04-26T22:32:57.660Z,5.03
2023-04-26T22:35:27.085Z,4.73
2023-04-26T22:37:57.365Z,3.53
2023-04-26T22:40:26.358Z,2.90
2023-04-26T22:42:54.933Z,3.53
2023-04-26T22:45:23.890Z,3.47
2023-04-26T22:47:52.520Z,4.13
2023-04-26T22:50:21.118Z,7.20
2023-04-26T22:52:49.926Z,5.57
2023-04-26T22:55:19.795Z,5.50
2023-04-26T22:57:48.165Z,6.17
2023-04-26T23:00:16.858Z,4.70
2023-04-26T23:02:45.319Z,6.60
2023-04-26T23:05:13.856Z,5.57
2023-04-26T23:07:42.152Z,7.07
2023-04-26T23:10:11.292Z,3.17
2023-04-26T23:12:41.934Z,4.13
2023-04-26T23:15:11.787Z,3.87
2023-04-26T23:17:41.895Z,4.53
2023-04-26T23:20:14.571Z,4.90
2023-04-26T23:22:43.857Z,3.30
2023-04-26T23:25:12.728Z,4.30
2023-04-26T23:27:42.617Z,5.80
2023-04-26T23:30:11.964Z,5.53
2023-04-26T23:32:40.633Z,3.17
2023-04-26T23:35:09.964Z,4.40
2023-04-26T23:37:38.538Z,1.87
2023-04-26T23:40:10.309Z,5.27
2023-04-26T23:42:38.916Z,5.80
2023-04-26T23:45:10.874Z,3.93
2023-04-26T23:47:39.216Z,4.50
2023-04-26T23:50:09.092Z,4.17
2023-04-26T23:52:37.529Z,6.90
2023-04-26T23:55:06.803Z,1.47
2023-04-26T23:57:35.867Z,6.90
